Cabarete, Dominican Republic
Current Conditions -  °F | °C
As of 8:00 PM on Tuesday 27 Jan 2015 (Local Time) from MDCY Reporting Station
Scattered Clouds Scattered Clouds  
Wind Chill: 75°   Ceiling: Unl
Heat Index: 75°   Visibility: 6mi
Dew Point: 72°   Wind: 6mph
Humidity: 89%   Direction: 40°NE
Pressure: 29.94"   Gusts: NA
Location:  19.57°N, 70.02°W
Report Text: MDCY 280000Z 04005KT 9999 SCT018 SCT070 24/22 Q1014
Loading
Personal Weather Stations






























Interactive Weather Map New forecast layout! Learn more

10-Day Weather Forecast

Advertisements
Track Severe Weather on mobile